sensor_id;sensor_type;location;lat;lon;timestamp;temperature;humidity
20162;DHT22;51382;53.180;15.414;2024-03-23T00:53:28;8.20;99.90
20162;DHT22;51382;53.180;15.414;2024-03-23T01:08:39;8.20;99.90
20162;DHT22;51382;53.180;15.414;2024-03-23T01:23:50;8.20;99.90
20162;DHT22;51382;53.180;15.414;2024-03-23T01:39:02;8.20;99.90
20162;DHT22;51382;53.180;15.414;2024-03-23T01:54:13;8.30;99.90
20162;DHT22;51382;53.180;15.414;2024-03-23T02:09:25;7.90;99.90
20162;DHT22;51382;53.180;15.414;2024-03-23T02:24:37;8.10;99.90
20162;DHT22;51382;53.180;15.414;2024-03-23T02:39:54;7.90;99.90
20162;DHT22;51382;53.180;15.414;2024-03-23T02:55:05;7.70;99.90
20162;DHT22;51382;53.180;15.414;2024-03-23T03:10:17;7.20;99.90
20162;DHT22;51382;53.180;15.414;2024-03-23T03:25:28;7.00;99.90
20162;DHT22;51382;53.180;15.414;2024-03-23T03:40:39;7.10;99.90
20162;DHT22;51382;53.180;15.414;2024-03-23T03:55:50;7.10;99.90
20162;DHT22;51382;53.180;15.414;2024-03-23T04:11:01;7.40;99.90
20162;DHT22;51382;53.180;15.414;2024-03-23T04:26:13;7.50;99.90
20162;DHT22;51382;53.180;15.414;2024-03-23T04:41:24;7.40;99.90
20162;DHT22;51382;53.180;15.414;2024-03-23T04:56:34;7.20;99.90
20162;DHT22;51382;53.180;15.414;2024-03-23T05:11:45;7.20;99.90
20162;DHT22;51382;53.180;15.414;2024-03-23T05:26:56;6.60;99.90
20162;DHT22;51382;53.180;15.414;2024-03-23T05:42:02;7.10;99.90
20162;DHT22;51382;53.180;15.414;2024-03-23T05:57:13;6.90;99.90
20162;DHT22;51382;53.180;15.414;2024-03-23T06:12:24;6.90;99.90
20162;DHT22;51382;53.180;15.414;2024-03-23T06:27:35;6.80;99.90
20162;DHT22;51382;53.180;15.414;2024-03-23T06:42:47;7.00;99.90
20162;DHT22;51382;53.180;15.414;2024-03-23T06:57:58;6.60;99.90
20162;DHT22;51382;53.180;15.414;2024-03-23T07:13:10;6.70;99.90
20162;DHT22;51382;53.180;15.414;2024-03-23T07:28:21;6.90;99.90
20162;DHT22;51382;53.180;15.414;2024-03-23T07:43:32;7.40;99.90
20162;DHT22;51382;53.180;15.414;2024-03-23T07:58:44;7.80;99.90
20162;DHT22;51382;53.180;15.414;2024-03-23T08:13:56;7.50;99.90
20162;DHT22;51382;53.180;15.414;2024-03-23T08:29:07;8.50;99.90
20162;DHT22;51382;53.180;15.414;2024-03-23T08:44:18;8.30;99.90
20162;DHT22;51382;53.180;15.414;2024-03-23T08:59:32;8.30;99.90
20162;DHT22;51382;53.180;15.414;2024-03-23T09:14:46;8.20;99.90
20162;DHT22;51382;53.180;15.414;2024-03-23T09:29:57;7.80;99.90
20162;DHT22;51382;53.180;15.414;2024-03-23T09:45:11;7.40;99.90
20162;DHT22;51382;53.180;15.414;2024-03-23T10:00:30;7.40;99.90
20162;DHT22;51382;53.180;15.414;2024-03-23T10:15:41;7.40;99.90
20162;DHT22;51382;53.180;15.414;2024-03-23T10:31:04;7.60;99.90
20162;DHT22;51382;53.180;15.414;2024-03-23T10:46:22;7.60;99.90
20162;DHT22;51382;53.180;15.414;2024-03-23T11:01:33;7.00;99.90
20162;DHT22;51382;53.180;15.414;2024-03-23T11:16:44;6.70;99.90
20162;DHT22;51382;53.180;15.414;2024-03-23T11:31:55;5.90;99.90
20162;DHT22;51382;53.180;15.414;2024-03-23T11:47:09;5.50;99.90
20162;DHT22;51382;53.180;15.414;2024-03-23T12:02:20;5.40;99.90
20162;DHT22;51382;53.180;15.414;2024-03-23T12:17:31;4.80;99.90
20162;DHT22;51382;53.180;15.414;2024-03-23T12:32:38;4.80;99.90
20162;DHT22;51382;53.180;15.414;2024-03-23T12:47:51;5.10;99.90
20162;DHT22;51382;53.180;15.414;2024-03-23T13:03:04;4.80;99.90
20162;DHT22;51382;53.180;15.414;2024-03-23T13:18:20;4.60;99.90
20162;DHT22;51382;53.180;15.414;2024-03-23T13:33:30;4.50;99.90
20162;DHT22;51382;53.180;15.414;2024-03-23T13:48:42;4.80;99.90
20162;DHT22;51382;53.180;15.414;2024-03-23T14:03:53;5.20;99.90
20162;DHT22;51382;53.180;15.414;2024-03-23T14:19:04;5.20;99.90
20162;DHT22;51382;53.180;15.414;2024-03-23T14:34:16;4.70;99.90
20162;DHT22;51382;53.180;15.414;2024-03-23T14:49:26;4.80;99.90
20162;DHT22;51382;53.180;15.414;2024-03-23T15:04:37;5.60;99.90
20162;DHT22;51382;53.180;15.414;2024-03-23T15:19:49;5.50;99.90
20162;DHT22;51382;53.180;15.414;2024-03-23T15:35:01;5.40;99.90
20162;DHT22;51382;53.180;15.414;2024-03-23T15:50:14;5.70;99.90
20162;DHT22;51382;53.180;15.414;2024-03-23T16:05:25;5.20;99.90
20162;DHT22;51382;53.180;15.414;2024-03-23T16:20:36;5.40;99.90
20162;DHT22;51382;53.180;15.414;2024-03-23T16:35:54;4.90;99.90
20162;DHT22;51382;53.180;15.414;2024-03-23T16:51:05;4.70;99.90
20162;DHT22;51382;53.180;15.414;2024-03-23T17:06:17;5.00;99.90
20162;DHT22;51382;53.180;15.414;2024-03-23T17:21:30;5.30;99.90
20162;DHT22;51382;53.180;15.414;2024-03-23T17:36:42;5.30;99.90
20162;DHT22;51382;53.180;15.414;2024-03-23T17:51:53;4.80;99.90
20162;DHT22;51382;53.180;15.414;2024-03-23T18:07:07;4.70;99.90
20162;DHT22;51382;53.180;15.414;2024-03-23T18:22:18;4.60;99.90
20162;DHT22;51382;53.180;15.414;2024-03-23T18:37:32;4.70;99.90
20162;DHT22;51382;53.180;15.414;2024-03-23T18:52:43;4.90;99.90
20162;DHT22;51382;53.180;15.414;2024-03-23T19:07:54;4.70;99.90
20162;DHT22;51382;53.180;15.414;2024-03-23T19:23:06;4.50;99.90
20162;DHT22;51382;53.180;15.414;2024-03-23T19:38:19;4.70;99.90
20162;DHT22;51382;53.180;15.414;2024-03-23T19:53:30;4.40;99.90
20162;DHT22;51382;53.180;15.414;2024-03-23T20:08:41;4.30;99.90
20162;DHT22;51382;53.180;15.414;2024-03-23T20:23:52;4.20;99.90
20162;DHT22;51382;53.180;15.414;2024-03-23T20:39:04;3.70;99.90
20162;DHT22;51382;53.180;15.414;2024-03-23T20:54:27;3.20;99.90
20162;DHT22;51382;53.180;15.414;2024-03-23T21:09:38;3.10;99.90
20162;DHT22;51382;53.180;15.414;2024-03-23T21:24:44;3.10;99.90
20162;DHT22;51382;53.180;15.414;2024-03-23T21:39:55;3.10;99.90
20162;DHT22;51382;53.180;15.414;2024-03-23T21:55:14;2.90;99.90
20162;DHT22;51382;53.180;15.414;2024-03-23T22:10:26;2.90;99.90
20162;DHT22;51382;53.180;15.414;2024-03-23T22:25:40;2.80;99.90
20162;DHT22;51382;53.180;15.414;2024-03-23T22:40:56;2.50;99.90
20162;DHT22;51382;53.180;15.414;2024-03-23T22:56:10;2.70;99.90
20162;DHT22;51382;53.180;15.414;2024-03-23T23:11:23;2.60;99.90
20162;DHT22;51382;53.180;15.414;2024-03-23T23:26:34;2.50;99.90
20162;DHT22;51382;53.180;15.414;2024-03-23T23:58:25;2.60;99.90
